South Easton, Massachusetts
Current Conditions -  °F | °C
As of 10:27 AM on Monday 22 Dec 2014 (Local Time) from KOWD Reporting Station
Overcast Overcast  
Wind Chill: 35°   Ceiling: 1700
Heat Index: 39°   Visibility: 10mi
Dew Point: 33°   Wind: 6mph
Humidity: 79%   Direction: NA
Pressure: 30.38"   Gusts: NA
Location:  42.05°N, 71.08°W
Report Text: KOWD 221527Z VRB05KT 10SM FEW012 OVC017 04/01 A3038 RMK AO2 T00390006
Loading
Personal Weather Stations






























Interactive Weather Map New forecast layout! Learn more

10-Day Weather Forecast

Advertisements
Track Severe Weather on mobile